Aérodrome :
LOGIN :

S'inscrire | Disclaimer

   EN    FR    IT 

 










Légende :    VFR   VFR Marginal   IFR   IFR Intensif   IFR Très Intensif
Visi : 
Plafond : 
>= 8 km
>= 3000ft
5 à 8 km
1000 à 3000 ft
1500m à 5 km
500 à 1000 ft
800 à 1500m
200 à 500 ft
< 800m
< 200 ft
Symboles :   Orages  Brouillard  Fortes neiges  Fortes précipitations  Vent > 20 kt
SIGMETs :   Divers  Orages  Givrage  Turbulence  Onde Orograph.  Cendres Volcan.






- Altitude de l'aérodrome : 288 ft
- Code IATA : BZZ


EGVN - RAF Brize Norton

DERNIER METAR :
  • 280420Z 15003KT 9999 BKN004 OVC006 12/11 Q1013 TEMPO FEW004 BKN006 RMK YLO2 TEMPO YLO1

METARs EXPIRÉS :
  • 280350Z 14004KT 9999 BKN004 OVC006 12/11 Q1013 TEMPO FEW004 BKN006 RMK YLO2 TEMPO YLO1
  • 280320Z 14005KT 9999 SCT004 OVC010 12/11 Q1013 TEMPO FEW004 SCT005 RMK YLO2 TEMPO YLO1
  • 280250Z 14004KT 9999 BKN010 12/11 Q1013 TEMPO SCT006 BKN008 RMK GRN TEMPO YLO1
  • 280220Z 15003KT 9999 SCT012 BKN016 12/10 Q1014 TEMPO SCT006 BKN008 RMK GRN TEMPO YLO1
  • 280150Z 15002KT 9999 BKN011 OVC017 11/10 Q1014 TEMPO SCT006 BKN008 RMK GRN TEMPO YLO1
  • 280120Z 13003KT 9999 BKN010 BKN030 11/10 Q1014 TEMPO SCT006 BKN008 RMK GRN TEMPO YLO1
  • 280050Z 13003KT 9999 BKN009 11/09 Q1014 TEMPO SCT006 BKN008
  • 280036Z 15003KT 9999 SCT010 BKN092 11/09 Q1015 TEMPO SCT006 BKN008 RMK GRN TEMPO YLO1
  • 280020Z 17002KT 9999 FEW020 BKN090 10/09 Q1015 BECMG BKN012 RMK BLU BECMG GRN
  • 272350Z 17002KT 9999 FEW025 11/09 Q1015 BECMG BKN011 RMK BLU BECMG GRN

TAF TAF EGVN
Valide du 28 à 03h jusqu'au 29 à 03h UTC


280132Z 2803/2903 15006KT 9999 BKN008
TEMPO 2803/2806 4000 -DZ BR
PROB40
TEMPO 2803/2806 2500 DZ SCT004 BKN005
TEMPO 2806/2809 3500 -RADZ BKN006
PROB40
TEMPO 2806/2809 2000 RADZ BKN004
PROB40
TEMPO 2809/2814 3500 -RADZ
PROB30
TEMPO 2809/2814 2000 +SHRA
BECMG 2814/2816 FEW016
PROB40
TEMPO 2816/2818 SCT016
PROB40
TEMPO 2818/2903 SCT010



MET'MAP, la Météo Aéronautique d'un coup d'oeil ! - Copyright ORBIFLY Décembre 2007 - Disclaimer

ORBIFLY MET'MAP TEAM :

Programmation & Développement : Alexandra Zaïnal
Sur une idée originale de : Baudouin d'Aumeries
Soutien technique & logistique : Manuel Goepfert
Assistance : Marc-Olivier Méhu




SOURCES & CREDITS :

   NOAA